createdAt,value
2022-10-26T00:01:42.688Z,11.40
2022-10-26T00:04:10.631Z,11.40
2022-10-26T00:06:38.547Z,11.40
2022-10-26T00:09:07.812Z,11.40
2022-10-26T00:11:35.771Z,11.40
2022-10-26T00:14:03.690Z,11.30
2022-10-26T00:16:31.772Z,11.30
2022-10-26T00:18:59.696Z,11.30
2022-10-26T00:21:27.589Z,11.40
2022-10-26T00:23:55.458Z,11.40
2022-10-26T00:26:24.709Z,11.40
2022-10-26T00:28:54.547Z,11.40
2022-10-26T00:31:22.496Z,11.40
2022-10-26T00:33:53.754Z,11.30
2022-10-26T00:36:21.701Z,11.40
2022-10-26T00:38:50.651Z,11.40
2022-10-26T00:41:20.023Z,11.30
2022-10-26T00:43:49.798Z,11.40
2022-10-26T00:46:21.065Z,11.40
2022-10-26T00:48:53.153Z,11.40
2022-10-26T00:51:26.512Z,11.30
2022-10-26T00:53:56.478Z,11.30
2022-10-26T00:56:25.384Z,11.30
2022-10-26T00:58:55.461Z,11.40
2022-10-26T01:01:23.418Z,11.40
2022-10-26T01:03:51.483Z,11.40
2022-10-26T01:06:19.926Z,11.30
2022-10-26T01:08:48.808Z,11.40
2022-10-26T01:11:17.426Z,11.40
2022-10-26T01:13:46.909Z,11.40
2022-10-26T01:16:47.116Z,11.40
2022-10-26T01:19:51.833Z,11.30
2022-10-26T01:22:23.378Z,11.40
2022-10-26T01:25:09.899Z,11.40
2022-10-26T01:27:40.381Z,11.40
2022-10-26T01:30:31.604Z,11.40
2022-10-26T01:33:18.176Z,11.40
2022-10-26T01:36:01.153Z,11.40
2022-10-26T01:38:36.193Z,11.40
2022-10-26T01:41:09.832Z,11.40
2022-10-26T01:43:41.173Z,11.40
2022-10-26T01:46:12.354Z,11.40
2022-10-26T01:48:42.413Z,11.40
2022-10-26T01:51:12.677Z,11.40
2022-10-26T01:53:46.875Z,11.40
2022-10-26T01:56:19.736Z,11.40
2022-10-26T01:59:17.912Z,11.40
2022-10-26T02:02:16.066Z,11.40
2022-10-26T02:04:53.375Z,11.40
2022-10-26T02:07:30.559Z,11.40
2022-10-26T02:10:05.063Z,11.40
2022-10-26T02:12:40.214Z,11.40
2022-10-26T02:15:13.183Z,11.40
2022-10-26T02:17:49.690Z,11.40
2022-10-26T02:20:23.030Z,11.50
2022-10-26T02:22:52.365Z,11.50
2022-10-26T02:25:24.563Z,11.50
2022-10-26T02:27:57.345Z,11.50
2022-10-26T02:30:25.549Z,11.50
2022-10-26T02:32:57.518Z,11.50
2022-10-26T02:35:30.099Z,11.50
2022-10-26T02:38:00.661Z,11.50
2022-10-26T02:40:30.819Z,11.50
2022-10-26T02:43:03.036Z,11.50
2022-10-26T02:45:36.038Z,11.50
2022-10-26T02:48:06.055Z,11.50
2022-10-26T02:50:44.135Z,11.50
2022-10-26T02:53:19.549Z,11.60
2022-10-26T02:55:51.557Z,11.60
2022-10-26T02:58:24.337Z,11.60
2022-10-26T03:00:52.824Z,11.60
2022-10-26T03:03:22.644Z,11.60
2022-10-26T03:05:50.821Z,11.60
2022-10-26T03:08:18.944Z,11.60
2022-10-26T03:10:47.360Z,11.60
2022-10-26T03:13:15.739Z,11.60
2022-10-26T03:15:43.656Z,11.70
2022-10-26T03:18:11.575Z,11.70
2022-10-26T03:20:40.804Z,11.70
2022-10-26T03:23:08.671Z,11.70
2022-10-26T03:25:36.619Z,11.70
2022-10-26T03:28:05.667Z,11.70
2022-10-26T03:30:33.602Z,11.70
2022-10-26T03:33:01.505Z,11.70
2022-10-26T03:35:29.418Z,11.70
2022-10-26T03:37:58.751Z,11.70
2022-10-26T03:40:26.639Z,11.80
2022-10-26T03:42:54.641Z,11.80
2022-10-26T03:45:22.926Z,11.70
2022-10-26T03:51:31.543Z,11.70
2022-10-26T03:54:00.763Z,11.80
2022-10-26T03:56:28.570Z,11.80
2022-10-26T03:58:56.398Z,11.80
2022-10-26T04:01:24.427Z,11.80
2022-10-26T04:03:52.396Z,11.80
2022-10-26T04:06:20.252Z,11.80
2022-10-26T04:08:48.107Z,11.80
2022-10-26T04:11:17.295Z,11.80
2022-10-26T04:13:45.159Z,11.80
2022-10-26T04:16:13.000Z,11.90
2022-10-26T04:18:40.829Z,11.90
2022-10-26T04:21:08.643Z,11.90
2022-10-26T04:23:36.491Z,11.90
2022-10-26T04:26:06.253Z,11.90
2022-10-26T04:28:35.610Z,11.90
2022-10-26T04:31:03.475Z,11.90
2022-10-26T04:33:31.342Z,11.90
2022-10-26T04:36:01.027Z,11.90
2022-10-26T04:38:29.031Z,11.90
2022-10-26T04:40:56.872Z,11.90
2022-10-26T04:43:24.759Z,11.90
2022-10-26T04:45:57.591Z,11.90
2022-10-26T04:51:00.086Z,11.90
2022-10-26T04:53:28.370Z,11.90
2022-10-26T04:55:59.769Z,11.90
2022-10-26T04:58:27.644Z,11.90
2022-10-26T05:00:57.117Z,11.90
2022-10-26T05:03:25.186Z,11.90
2022-10-26T05:05:53.053Z,11.90
2022-10-26T05:08:20.942Z,11.90
2022-10-26T05:10:49.986Z,11.90
2022-10-26T05:13:18.278Z,11.90
2022-10-26T05:15:46.169Z,11.90
2022-10-26T05:18:15.397Z,11.90
2022-10-26T05:20:43.311Z,11.90
2022-10-26T05:23:13.791Z,11.90
2022-10-26T05:25:41.691Z,12.00
2022-10-26T05:28:13.290Z,12.00
2022-10-26T05:30:41.663Z,12.00
2022-10-26T05:33:11.199Z,12.00
2022-10-26T05:35:40.952Z,12.00
2022-10-26T05:38:09.685Z,12.00
2022-10-26T05:40:37.854Z,12.00
2022-10-26T05:43:05.912Z,12.00
2022-10-26T05:45:33.807Z,12.10
2022-10-26T05:48:02.822Z,12.00
2022-10-26T05:50:31.376Z,12.10
2022-10-26T05:53:00.558Z,12.10
2022-10-26T05:55:29.021Z,12.10
2022-10-26T05:57:57.565Z,12.10
2022-10-26T06:00:27.096Z,12.10
2022-10-26T06:03:09.808Z,12.10
2022-10-26T06:05:53.276Z,12.10
2022-10-26T06:08:25.029Z,12.10
2022-10-26T06:10:54.550Z,12.10
2022-10-26T06:13:23.678Z,12.10
2022-10-26T06:16:05.778Z,12.10
2022-10-26T06:18:44.311Z,12.20
2022-10-26T06:21:28.026Z,12.10
2022-10-26T06:24:04.665Z,12.10
2022-10-26T06:26:41.951Z,12.20
2022-10-26T06:29:22.444Z,12.20
2022-10-26T06:31:50.343Z,12.20
2022-10-26T06:34:25.649Z,12.20
2022-10-26T06:39:32.158Z,12.20
2022-10-26T06:42:00.558Z,12.20
2022-10-26T06:44:28.998Z,12.20
2022-10-26T06:47:05.945Z,12.20
2022-10-26T06:49:38.108Z,12.20
2022-10-26T06:52:14.509Z,12.20
2022-10-26T06:54:51.255Z,12.30
2022-10-26T06:57:21.140Z,12.30
2022-10-26T06:59:52.107Z,12.30
2022-10-26T07:02:20.413Z,12.30
2022-10-26T07:04:48.685Z,12.30
2022-10-26T07:07:19.915Z,12.30
2022-10-26T07:09:49.142Z,12.30
2022-10-26T07:12:17.066Z,12.30
2022-10-26T07:14:44.988Z,12.30
2022-10-26T07:17:13.091Z,12.30
2022-10-26T07:19:42.841Z,12.30
2022-10-26T07:22:10.704Z,12.30
2022-10-26T07:24:38.620Z,12.30
2022-10-26T07:27:07.863Z,12.30
2022-10-26T07:29:36.384Z,12.30
2022-10-26T07:32:04.341Z,12.30
2022-10-26T07:34:32.161Z,12.30
2022-10-26T07:37:00.745Z,12.30
2022-10-26T07:39:28.665Z,12.30
2022-10-26T07:41:56.684Z,12.40
2022-10-26T07:44:26.121Z,12.40
2022-10-26T07:46:53.939Z,12.40
2022-10-26T07:49:24.944Z,12.50
2022-10-26T07:51:55.493Z,12.50
2022-10-26T07:54:23.338Z,12.50
2022-10-26T07:56:51.451Z,12.50
2022-10-26T07:59:19.350Z,12.50
2022-10-26T08:01:48.552Z,12.60
2022-10-26T08:04:16.853Z,12.60
2022-10-26T08:06:44.691Z,12.60
2022-10-26T08:09:12.535Z,12.70
2022-10-26T08:11:40.325Z,12.70
2022-10-26T08:14:08.259Z,12.70
2022-10-26T08:16:36.180Z,12.80
2022-10-26T08:19:05.405Z,12.90
2022-10-26T08:21:39.759Z,12.90
2022-10-26T08:24:08.827Z,13.00
2022-10-26T08:26:36.774Z,13.00
2022-10-26T08:29:04.721Z,13.10
2022-10-26T08:31:32.596Z,13.10
2022-10-26T08:34:01.761Z,13.10
2022-10-26T08:36:30.994Z,13.20
2022-10-26T08:41:36.703Z,13.30
2022-10-26T08:44:18.880Z,13.30
2022-10-26T08:46:51.234Z,13.40
2022-10-26T08:49:24.273Z,13.40
2022-10-26T08:51:56.809Z,13.50
2022-10-26T08:54:33.598Z,13.60
2022-10-26T08:57:05.713Z,13.60
2022-10-26T08:59:39.221Z,13.70
2022-10-26T09:02:13.316Z,13.80
2022-10-26T09:04:41.387Z,13.90
2022-10-26T09:07:19.678Z,13.90
2022-10-26T09:09:55.627Z,14.00
2022-10-26T09:12:35.168Z,14.10
2022-10-26T09:15:15.658Z,14.20
2022-10-26T09:17:49.267Z,14.30
2022-10-26T09:20:42.404Z,14.30
2022-10-26T09:23:28.491Z,14.40
2022-10-26T09:26:00.815Z,14.50
2022-10-26T09:28:31.781Z,14.60
2022-10-26T09:31:01.794Z,14.70
2022-10-26T09:33:31.329Z,14.70
2022-10-26T09:36:02.405Z,14.80
2022-10-26T09:38:34.090Z,14.90
2022-10-26T09:41:07.000Z,15.00
2022-10-26T09:43:41.242Z,15.10
2022-10-26T09:46:15.446Z,15.20
2022-10-26T09:48:47.326Z,15.20
2022-10-26T09:51:17.159Z,15.30
2022-10-26T09:53:46.369Z,15.40
2022-10-26T09:56:16.111Z,15.40
2022-10-26T09:58:45.950Z,15.60
2022-10-26T10:01:23.573Z,15.60
2022-10-26T10:04:11.684Z,15.70
2022-10-26T10:06:39.912Z,15.80
2022-10-26T10:09:12.779Z,15.90
2022-10-26T10:11:42.297Z,16.00
2022-10-26T10:14:17.641Z,16.10
2022-10-26T10:16:52.913Z,16.10
2022-10-26T10:19:25.371Z,16.20
2022-10-26T10:21:56.564Z,16.30
2022-10-26T10:24:28.355Z,16.30
2022-10-26T10:26:58.953Z,16.40
2022-10-26T10:29:27.647Z,16.50
2022-10-26T10:31:59.970Z,16.50
2022-10-26T10:34:28.630Z,16.60
2022-10-26T10:36:57.225Z,16.60
2022-10-26T10:39:36.644Z,16.60
2022-10-26T10:42:06.204Z,16.70
2022-10-26T10:44:34.917Z,16.70
2022-10-26T10:47:04.421Z,16.80
2022-10-26T10:49:32.646Z,16.80
2022-10-26T10:52:00.932Z,16.80
2022-10-26T10:54:33.067Z,16.90
2022-10-26T10:57:12.556Z,16.90
2022-10-26T10:59:56.128Z,16.90
2022-10-26T11:02:49.216Z,17.00
2022-10-26T11:05:33.566Z,17.00
2022-10-26T11:08:08.566Z,17.10
2022-10-26T11:10:43.081Z,17.20
2022-10-26T11:13:19.050Z,17.20
2022-10-26T11:15:51.867Z,17.20
2022-10-26T11:18:23.431Z,17.20
2022-10-26T11:23:35.490Z,17.30
2022-10-26T11:26:10.940Z,17.40
2022-10-26T11:28:47.117Z,17.50
2022-10-26T11:31:19.043Z,17.50
2022-10-26T11:33:53.083Z,17.50
2022-10-26T11:36:24.051Z,17.60
2022-10-26T11:39:02.714Z,17.60
2022-10-26T11:41:39.694Z,17.60
2022-10-26T11:44:14.707Z,17.70
2022-10-26T11:46:46.019Z,17.70
2022-10-26T11:49:19.539Z,17.80
2022-10-26T11:51:53.194Z,17.80
2022-10-26T11:54:25.326Z,17.90
2022-10-26T11:56:56.759Z,17.90
2022-10-26T11:59:30.721Z,17.90
2022-10-26T12:02:06.284Z,18.00
2022-10-26T12:04:37.764Z,18.00
2022-10-26T12:07:10.590Z,18.10
2022-10-26T12:09:40.707Z,18.10
2022-10-26T12:12:18.683Z,18.10
2022-10-26T12:14:52.469Z,18.20
2022-10-26T12:17:27.407Z,18.20
2022-10-26T12:20:01.674Z,18.20
2022-10-26T12:22:33.571Z,18.30
2022-10-26T12:25:20.754Z,18.30
2022-10-26T12:27:58.247Z,18.30
2022-10-26T12:30:31.489Z,18.40
2022-10-26T12:33:01.420Z,18.40
2022-10-26T12:35:38.055Z,18.40
2022-10-26T12:38:51.049Z,18.50
2022-10-26T12:41:26.760Z,18.50
2022-10-26T12:44:04.885Z,18.50
2022-10-26T12:46:45.427Z,18.60
2022-10-26T12:49:48.936Z,18.60
2022-10-26T12:52:35.970Z,18.70
2022-10-26T12:55:52.270Z,18.70
2022-10-26T12:58:42.567Z,18.70
2022-10-26T13:01:46.133Z,18.70
2022-10-26T13:04:41.068Z,18.80
2022-10-26T13:07:21.150Z,18.80
2022-10-26T13:09:57.848Z,18.80
2022-10-26T13:12:26.923Z,18.90
2022-10-26T13:15:01.558Z,18.90
2022-10-26T13:17:32.481Z,18.90
2022-10-26T13:20:04.006Z,19.00
2022-10-26T13:22:32.437Z,19.00
2022-10-26T13:25:03.071Z,19.00
2022-10-26T13:27:44.966Z,19.10
2022-10-26T13:30:22.946Z,19.10
2022-10-26T13:32:53.648Z,19.10
2022-10-26T13:35:24.983Z,19.10
2022-10-26T13:37:55.801Z,19.10
2022-10-26T13:40:26.878Z,19.20
2022-10-26T13:42:57.607Z,19.20
2022-10-26T13:45:29.033Z,19.20
2022-10-26T13:48:02.443Z,19.20
2022-10-26T13:50:37.311Z,19.20
2022-10-26T13:53:09.176Z,19.20
2022-10-26T13:55:47.229Z,19.20
2022-10-26T13:58:19.967Z,19.20
2022-10-26T14:01:05.867Z,19.20
2022-10-26T14:03:33.748Z,19.20
2022-10-26T14:06:06.766Z,19.20
2022-10-26T14:08:34.717Z,19.20
2022-10-26T14:11:03.720Z,19.20
2022-10-26T14:13:32.826Z,19.20
2022-10-26T14:16:01.173Z,19.20
2022-10-26T14:18:31.106Z,19.20
2022-10-26T14:21:04.046Z,19.20
2022-10-26T14:23:36.124Z,19.20
2022-10-26T14:26:04.830Z,19.20
2022-10-26T14:28:39.945Z,19.20
2022-10-26T14:31:18.033Z,19.20
2022-10-26T14:33:48.233Z,19.20
2022-10-26T14:36:20.328Z,19.20
2022-10-26T14:38:50.348Z,19.20
2022-10-26T14:41:19.058Z,19.20
2022-10-26T14:43:47.670Z,19.20
2022-10-26T14:46:18.149Z,19.10
2022-10-26T14:48:54.333Z,19.10
2022-10-26T14:51:28.077Z,19.10
2022-10-26T14:53:57.820Z,19.10
2022-10-26T14:56:29.826Z,19.10
2022-10-26T14:58:59.127Z,19.10
2022-10-26T15:01:35.974Z,19.10
2022-10-26T15:04:06.675Z,19.10
2022-10-26T15:06:40.701Z,19.10
2022-10-26T15:09:30.730Z,19.00
2022-10-26T15:11:58.799Z,19.00
2022-10-26T15:14:26.845Z,19.00
2022-10-26T15:16:56.810Z,19.00
2022-10-26T15:19:25.676Z,19.00
2022-10-26T15:21:55.172Z,19.00
2022-10-26T15:24:33.310Z,19.00
2022-10-26T15:27:04.889Z,18.90
2022-10-26T15:29:37.294Z,18.90
2022-10-26T15:32:07.537Z,18.90
2022-10-26T15:34:35.568Z,18.90
2022-10-26T15:37:05.114Z,18.90
2022-10-26T15:39:32.942Z,18.90
2022-10-26T15:42:01.574Z,18.90
2022-10-26T15:44:29.404Z,18.90
2022-10-26T15:47:08.507Z,18.90
2022-10-26T15:49:36.650Z,18.80
2022-10-26T15:52:10.308Z,18.80
2022-10-26T15:54:38.177Z,18.80
2022-10-26T15:59:39.452Z,18.80
2022-10-26T16:02:14.972Z,18.80
2022-10-26T16:04:42.981Z,18.70
2022-10-26T16:07:15.844Z,18.70
2022-10-26T16:09:45.239Z,18.70
2022-10-26T16:12:13.796Z,18.70
2022-10-26T16:15:03.793Z,18.70
2022-10-26T16:17:29.601Z,18.60
2022-10-26T16:19:57.614Z,18.60
2022-10-26T16:22:26.900Z,18.60
2022-10-26T16:24:54.763Z,18.60
2022-10-26T16:27:22.867Z,18.50
2022-10-26T16:29:50.645Z,18.50
2022-10-26T16:32:18.470Z,18.50
2022-10-26T16:34:46.298Z,18.50
2022-10-26T16:37:14.118Z,18.40
2022-10-26T16:39:43.262Z,18.40
2022-10-26T16:42:11.109Z,18.40
2022-10-26T16:44:39.001Z,18.40
2022-10-26T16:47:06.835Z,18.40
2022-10-26T16:49:34.651Z,18.30
2022-10-26T16:52:04.237Z,18.30
2022-10-26T16:54:32.065Z,18.30
2022-10-26T16:57:01.231Z,18.30
2022-10-26T16:59:29.034Z,18.30
2022-10-26T17:01:57.041Z,18.20
2022-10-26T17:04:25.214Z,18.20
2022-10-26T17:06:53.051Z,18.20
2022-10-26T17:09:20.870Z,18.10
2022-10-26T17:11:48.676Z,18.10
2022-10-26T17:14:17.948Z,18.10
2022-10-26T17:16:45.751Z,18.00
2022-10-26T17:19:13.743Z,18.00
2022-10-26T17:21:43.524Z,18.00
2022-10-26T17:24:11.705Z,18.00
2022-10-26T17:26:39.515Z,17.90
2022-10-26T17:29:07.743Z,17.90
2022-10-26T17:31:38.528Z,17.80
2022-10-26T17:34:06.500Z,17.80
2022-10-26T17:36:34.402Z,17.80
2022-10-26T17:39:02.450Z,17.80
2022-10-26T17:41:30.345Z,17.70
2022-10-26T17:43:58.137Z,17.70
2022-10-26T17:46:27.388Z,17.70
2022-10-26T17:48:57.609Z,17.60
2022-10-26T17:51:26.106Z,17.60
2022-10-26T17:53:54.644Z,17.60
2022-10-26T17:56:24.550Z,17.50
2022-10-26T17:58:54.538Z,17.50
2022-10-26T18:01:23.134Z,17.50
2022-10-26T18:03:51.399Z,17.50
2022-10-26T18:06:21.005Z,17.40
2022-10-26T18:08:49.051Z,17.40
2022-10-26T18:11:23.834Z,17.40
2022-10-26T18:13:54.838Z,17.30
2022-10-26T18:16:23.952Z,17.30
2022-10-26T18:18:59.902Z,17.30
2022-10-26T18:21:30.332Z,17.20
2022-10-26T18:23:58.170Z,17.20
2022-10-26T18:26:28.412Z,17.20
2022-10-26T18:28:56.537Z,17.20
2022-10-26T18:31:26.269Z,17.10
2022-10-26T18:33:56.227Z,17.10
2022-10-26T18:36:24.666Z,17.10
2022-10-26T18:38:53.997Z,17.00
2022-10-26T18:41:23.416Z,17.00
2022-10-26T18:43:53.312Z,17.00
2022-10-26T18:46:24.183Z,17.00
2022-10-26T18:48:52.630Z,16.90
2022-10-26T18:51:22.479Z,16.90
2022-10-26T18:53:50.680Z,16.90
2022-10-26T18:56:21.358Z,16.80
2022-10-26T18:58:51.238Z,16.80
2022-10-26T19:01:20.968Z,16.80
2022-10-26T19:03:53.265Z,16.70
2022-10-26T19:06:23.237Z,16.70
2022-10-26T19:08:51.051Z,16.70
2022-10-26T19:11:22.301Z,16.70
2022-10-26T19:13:52.703Z,16.70
2022-10-26T19:16:40.699Z,16.60
2022-10-26T19:19:10.600Z,16.60
2022-10-26T19:21:38.588Z,16.60
2022-10-26T19:24:11.680Z,16.50
2022-10-26T19:26:43.464Z,16.50
2022-10-26T19:29:14.851Z,16.50
2022-10-26T19:31:43.545Z,16.50
2022-10-26T19:34:12.153Z,16.40
2022-10-26T19:36:44.127Z,16.40
2022-10-26T19:39:12.534Z,16.40
2022-10-26T19:41:41.699Z,16.30
2022-10-26T19:44:11.672Z,16.30
2022-10-26T19:46:39.791Z,16.30
2022-10-26T19:49:08.117Z,16.30
2022-10-26T19:51:36.276Z,16.20
2022-10-26T19:54:06.246Z,16.20
2022-10-26T19:56:34.913Z,16.20
2022-10-26T19:59:04.602Z,16.10
2022-10-26T20:01:32.839Z,16.10
2022-10-26T20:04:02.436Z,16.10
2022-10-26T20:06:30.805Z,16.10
2022-10-26T20:09:00.149Z,16.10
2022-10-26T20:11:28.149Z,16.00
2022-10-26T20:13:56.334Z,16.00
2022-10-26T20:16:25.707Z,16.00
2022-10-26T20:18:53.503Z,15.90
2022-10-26T20:21:21.717Z,15.90
2022-10-26T20:23:49.481Z,15.90
2022-10-26T20:26:20.140Z,15.90
2022-10-26T20:28:50.852Z,15.90
2022-10-26T20:31:19.337Z,15.80
2022-10-26T20:33:50.525Z,15.80
2022-10-26T20:36:18.344Z,15.80
2022-10-26T20:38:47.295Z,15.80
2022-10-26T20:41:15.673Z,15.80
2022-10-26T20:43:44.224Z,15.80
2022-10-26T20:46:18.131Z,15.70
2022-10-26T20:48:46.366Z,15.70
2022-10-26T20:51:20.920Z,15.70
2022-10-26T20:53:54.467Z,15.70
2022-10-26T20:56:25.045Z,15.70
2022-10-26T20:58:55.753Z,15.70
2022-10-26T21:01:25.867Z,15.60
2022-10-26T21:03:54.438Z,15.60
2022-10-26T21:06:24.445Z,15.60
2022-10-26T21:08:53.346Z,15.60
2022-10-26T21:11:22.142Z,15.60
2022-10-26T21:13:51.144Z,15.60
2022-10-26T21:16:19.088Z,15.60
2022-10-26T21:18:46.974Z,15.50
2022-10-26T21:21:14.823Z,15.50
2022-10-26T21:23:44.096Z,15.50
2022-10-26T21:26:12.564Z,15.50
2022-10-26T21:28:42.447Z,15.50
2022-10-26T21:31:12.423Z,15.50
2022-10-26T21:33:40.714Z,15.50
2022-10-26T21:36:11.992Z,15.50
2022-10-26T21:38:40.719Z,15.50
2022-10-26T21:41:12.273Z,15.50
2022-10-26T21:43:41.847Z,15.40
2022-10-26T21:46:10.886Z,15.40
2022-10-26T21:48:40.919Z,15.40
2022-10-26T21:51:12.666Z,15.40
2022-10-26T21:53:40.677Z,15.40
2022-10-26T21:56:12.171Z,15.40
2022-10-26T21:58:40.403Z,15.40
2022-10-26T22:01:08.921Z,15.30
2022-10-26T22:03:36.893Z,15.40
2022-10-26T22:06:05.654Z,15.30
2022-10-26T22:08:34.122Z,15.30
2022-10-26T22:11:07.247Z,15.30
2022-10-26T22:13:37.210Z,15.30
2022-10-26T22:16:07.740Z,15.30
2022-10-26T22:18:36.315Z,15.30
2022-10-26T22:21:05.319Z,15.30
2022-10-26T22:23:34.854Z,15.30
2022-10-26T22:26:04.265Z,15.30
2022-10-26T22:28:34.652Z,15.30
2022-10-26T22:31:07.482Z,15.30
2022-10-26T22:33:35.502Z,15.30
2022-10-26T22:36:08.011Z,15.30
2022-10-26T22:38:35.831Z,15.30
2022-10-26T22:41:03.743Z,15.30
2022-10-26T22:43:31.973Z,15.30
2022-10-26T22:46:01.247Z,15.30
2022-10-26T22:48:30.805Z,15.30
2022-10-26T22:50:59.099Z,15.30
2022-10-26T22:53:26.914Z,15.30
2022-10-26T22:55:54.715Z,15.30
2022-10-26T22:58:22.518Z,15.30
2022-10-26T23:00:50.801Z,15.30
2022-10-26T23:03:18.671Z,15.30
2022-10-26T23:05:48.315Z,15.30
2022-10-26T23:08:16.294Z,15.30
2022-10-26T23:10:44.109Z,15.30
2022-10-26T23:13:11.934Z,15.30
2022-10-26T23:15:39.738Z,15.30
2022-10-26T23:18:07.799Z,15.30
2022-10-26T23:20:37.207Z,15.40
2022-10-26T23:23:06.430Z,15.40
2022-10-26T23:25:34.319Z,15.40
2022-10-26T23:28:02.133Z,15.40
2022-10-26T23:30:29.942Z,15.40
2022-10-26T23:32:57.795Z,15.40
2022-10-26T23:35:25.705Z,15.40
2022-10-26T23:37:53.538Z,15.40
2022-10-26T23:40:22.728Z,15.40
2022-10-26T23:42:50.816Z,15.40
2022-10-26T23:45:18.906Z,15.40
2022-10-26T23:47:46.690Z,15.40
2022-10-26T23:50:14.603Z,15.40
2022-10-26T23:52:42.373Z,15.40
2022-10-26T23:55:10.734Z,15.40
2022-10-26T23:57:41.526Z,15.40
